createdAt,value
2023-09-03T00:02:57.554Z,19.36
2023-09-03T00:05:59.929Z,19.42
2023-09-03T00:09:02.908Z,19.41
2023-09-03T00:12:05.657Z,19.45
2023-09-03T00:15:08.446Z,19.46
2023-09-03T00:18:15.612Z,19.43
2023-09-03T00:21:18.148Z,19.47
2023-09-03T00:24:20.534Z,19.42
2023-09-03T00:27:22.919Z,19.38
2023-09-03T00:30:25.368Z,19.28
2023-09-03T00:33:29.195Z,19.19
2023-09-03T00:36:31.590Z,19.16
2023-09-03T00:39:34.720Z,19.18
2023-09-03T00:42:37.152Z,19.15
2023-09-03T00:45:40.620Z,19.12
2023-09-03T00:48:43.870Z,19.05
2023-09-03T00:51:46.413Z,18.89
2023-09-03T00:54:48.755Z,18.79
2023-09-03T00:57:51.120Z,18.65
2023-09-03T01:00:53.474Z,18.73
2023-09-03T01:03:57.584Z,18.66
2023-09-03T01:07:00.294Z,18.64
2023-09-03T01:10:02.721Z,18.52
2023-09-03T01:13:18.153Z,18.44
2023-09-03T01:16:24.495Z,18.31
2023-09-03T01:19:49.532Z,18.38
2023-09-03T01:23:09.992Z,18.33
2023-09-03T01:26:13.497Z,18.28
2023-09-03T01:29:15.883Z,18.26
2023-09-03T01:32:18.264Z,18.35
2023-09-03T01:35:20.664Z,18.51
2023-09-03T01:38:23.482Z,18.61
2023-09-03T01:41:26.119Z,18.71
2023-09-03T01:44:28.529Z,18.72
2023-09-03T01:47:45.039Z,18.68
2023-09-03T01:51:12.879Z,18.52
2023-09-03T01:54:27.033Z,18.43
2023-09-03T01:57:31.095Z,18.43
2023-09-03T02:00:33.848Z,18.43
2023-09-03T02:03:36.225Z,18.40
2023-09-03T02:06:39.962Z,18.36
2023-09-03T02:09:42.348Z,18.28
2023-09-03T02:12:44.890Z,18.18
2023-09-03T02:15:47.218Z,18.08
2023-09-03T02:18:49.641Z,17.99
2023-09-03T02:21:52.056Z,18.02
2023-09-03T02:24:54.437Z,18.03
2023-09-03T02:27:56.797Z,18.06
2023-09-03T02:30:59.343Z,18.02
2023-09-03T02:34:02.717Z,18.01
2023-09-03T02:37:05.235Z,18.02
2023-09-03T02:40:08.466Z,18.10
2023-09-03T02:43:10.841Z,18.09
2023-09-03T02:46:14.191Z,17.99
2023-09-03T02:49:16.557Z,17.94
2023-09-03T02:52:19.836Z,17.89
2023-09-03T02:55:22.263Z,17.79
2023-09-03T02:58:24.613Z,17.66
2023-09-03T03:01:27.035Z,17.62
2023-09-03T03:04:29.417Z,17.63
2023-09-03T03:07:31.869Z,17.63
2023-09-03T03:10:34.261Z,17.71
2023-09-03T03:13:37.036Z,17.74
2023-09-03T03:16:39.506Z,17.79
2023-09-03T03:19:51.469Z,17.75
2023-09-03T03:22:54.720Z,17.78
2023-09-03T03:25:58.105Z,17.71
2023-09-03T03:29:01.388Z,17.66
2023-09-03T03:32:08.567Z,17.69
2023-09-03T03:35:14.532Z,17.69
2023-09-03T03:38:16.979Z,17.72
2023-09-03T03:41:20.541Z,17.78
2023-09-03T03:44:26.773Z,17.86
2023-09-03T03:47:29.199Z,17.92
2023-09-03T03:50:31.849Z,17.91
2023-09-03T03:53:34.234Z,17.95
2023-09-03T03:56:36.609Z,17.91
2023-09-03T03:59:39.073Z,17.85
2023-09-03T04:02:41.505Z,17.84
2023-09-03T04:05:43.870Z,17.82
2023-09-03T04:08:46.495Z,17.84
2023-09-03T04:11:49.976Z,17.80
2023-09-03T04:14:52.369Z,17.78
2023-09-03T04:17:55.333Z,17.78
2023-09-03T04:20:58.395Z,17.76
2023-09-03T04:24:03.838Z,17.80
2023-09-03T04:27:06.376Z,17.85
2023-09-03T04:30:09.948Z,17.84
2023-09-03T04:33:12.483Z,17.84
2023-09-03T04:36:15.707Z,17.85
2023-09-03T04:39:18.332Z,17.84
2023-09-03T04:42:20.914Z,17.89
2023-09-03T04:45:23.359Z,17.98
2023-09-03T04:48:26.704Z,18.07
2023-09-03T04:51:29.551Z,18.18
2023-09-03T04:54:32.484Z,18.21
2023-09-03T04:57:34.991Z,18.27
2023-09-03T05:00:38.446Z,18.32
2023-09-03T05:03:44.226Z,18.37
2023-09-03T05:06:50.363Z,18.41
2023-09-03T05:09:56.363Z,18.45
2023-09-03T05:13:00.928Z,18.46
2023-09-03T05:16:03.627Z,18.48
2023-09-03T05:19:06.430Z,18.54
2023-09-03T05:22:09.756Z,18.62
2023-09-03T05:25:12.212Z,18.72
2023-09-03T05:28:14.703Z,18.81
2023-09-03T05:31:17.385Z,18.95
2023-09-03T05:34:20.136Z,19.10
2023-09-03T05:37:23.060Z,19.17
2023-09-03T05:40:25.722Z,19.32
2023-09-03T05:43:28.186Z,19.42
2023-09-03T05:46:32.001Z,19.57
2023-09-03T05:49:35.237Z,19.71
2023-09-03T05:52:37.659Z,19.81
2023-09-03T05:55:40.987Z,19.91
2023-09-03T05:58:44.452Z,19.99
2023-09-03T06:01:47.632Z,20.09
2023-09-03T06:04:51.217Z,20.16
2023-09-03T06:07:53.744Z,20.21
2023-09-03T06:10:57.630Z,20.30
2023-09-03T06:14:00.056Z,20.39
2023-09-03T06:17:05.084Z,20.50
2023-09-03T06:20:07.932Z,20.63
2023-09-03T06:23:10.318Z,20.74
2023-09-03T06:26:12.662Z,20.87
2023-09-03T06:29:15.103Z,20.97
2023-09-03T06:32:17.494Z,21.08
2023-09-03T06:35:19.891Z,21.21
2023-09-03T06:38:22.855Z,21.30
2023-09-03T06:41:25.368Z,21.37
2023-09-03T06:44:28.159Z,21.45
2023-09-03T06:47:30.560Z,21.52
2023-09-03T06:50:33.030Z,21.59
2023-09-03T06:53:35.410Z,21.76
2023-09-03T06:56:37.795Z,21.79
2023-09-03T06:59:42.132Z,21.88
2023-09-03T07:02:44.614Z,21.94
2023-09-03T07:05:47.184Z,21.99
2023-09-03T07:08:51.936Z,22.05
2023-09-03T07:11:54.346Z,22.11
2023-09-03T07:14:56.680Z,22.21
2023-09-03T07:17:59.026Z,22.31
2023-09-03T07:21:04.206Z,22.37
2023-09-03T07:24:07.040Z,22.43
2023-09-03T07:27:09.433Z,22.48
2023-09-03T07:30:13.129Z,22.49
2023-09-03T07:33:15.558Z,22.57
2023-09-03T07:36:17.946Z,22.62
2023-09-03T07:39:20.365Z,22.67
2023-09-03T07:42:22.802Z,22.76
2023-09-03T07:45:25.149Z,22.81
2023-09-03T07:48:27.558Z,22.86
2023-09-03T07:51:29.935Z,22.90
2023-09-03T07:54:32.282Z,23.01
2023-09-03T07:57:34.809Z,23.11
2023-09-03T08:00:37.137Z,23.28
2023-09-03T08:03:44.613Z,23.40
2023-09-03T08:06:46.980Z,23.56
2023-09-03T08:09:49.896Z,23.74
2023-09-03T08:12:52.238Z,23.82
2023-09-03T08:15:54.631Z,23.94
2023-09-03T08:18:57.025Z,24.10
2023-09-03T08:21:59.361Z,24.25
2023-09-03T08:25:01.736Z,24.45
2023-09-03T08:28:04.488Z,24.61
2023-09-03T08:31:06.861Z,24.74
2023-09-03T08:34:10.661Z,24.89
2023-09-03T08:37:13.113Z,25.10
2023-09-03T08:40:15.603Z,25.28
2023-09-03T08:43:20.905Z,25.28
2023-09-03T08:46:26.190Z,25.32
2023-09-03T08:49:30.312Z,25.40
2023-09-03T08:52:32.703Z,25.46
2023-09-03T08:55:35.124Z,25.58
2023-09-03T08:58:37.469Z,25.61
2023-09-03T09:01:39.862Z,25.60
2023-09-03T09:04:42.260Z,25.55
2023-09-03T09:07:44.645Z,25.47
2023-09-03T09:10:49.531Z,25.40
2023-09-03T09:13:56.670Z,25.41
2023-09-03T09:16:59.058Z,25.40
2023-09-03T09:20:01.398Z,25.46
2023-09-03T09:23:03.876Z,25.47
2023-09-03T09:26:23.706Z,25.63
2023-09-03T09:29:26.078Z,25.68
2023-09-03T09:32:28.456Z,25.65
2023-09-03T09:35:31.013Z,25.66
2023-09-03T09:38:35.876Z,25.61
2023-09-03T09:41:41.494Z,25.64
2023-09-03T09:45:02.909Z,25.77
2023-09-03T09:48:09.781Z,25.78
2023-09-03T09:51:12.200Z,25.83
2023-09-03T09:54:14.583Z,25.88
2023-09-03T09:57:23.432Z,25.99
2023-09-03T10:00:36.637Z,26.08
2023-09-03T10:03:43.305Z,26.16
2023-09-03T10:06:45.812Z,26.23
2023-09-03T10:09:48.249Z,26.36
2023-09-03T10:12:50.619Z,26.35
2023-09-03T10:15:53.389Z,26.44
2023-09-03T10:18:55.956Z,26.45
2023-09-03T10:22:00.482Z,26.48
2023-09-03T10:25:05.780Z,26.61
2023-09-03T10:28:08.281Z,26.64
2023-09-03T10:31:10.626Z,26.90
2023-09-03T10:34:14.643Z,27.38
2023-09-03T10:37:17.071Z,27.64
2023-09-03T10:40:21.260Z,27.48
2023-09-03T10:43:24.847Z,27.24
2023-09-03T10:46:27.254Z,27.08
2023-09-03T10:49:42.420Z,27.13
2023-09-03T10:52:44.797Z,27.57
2023-09-03T10:56:07.041Z,28.26
2023-09-03T10:59:09.445Z,28.39
2023-09-03T11:02:27.601Z,28.09
2023-09-03T11:05:30.033Z,27.97
2023-09-03T11:08:37.447Z,27.78
2023-09-03T11:11:40.015Z,27.69
2023-09-03T11:14:42.395Z,27.66
2023-09-03T11:17:57.843Z,27.75
2023-09-03T11:21:00.252Z,27.77
2023-09-03T11:24:06.424Z,27.60
2023-09-03T11:27:08.863Z,27.57
2023-09-03T11:30:11.804Z,27.66
2023-09-03T11:33:27.233Z,27.53
2023-09-03T11:36:29.618Z,27.48
2023-09-03T11:39:31.957Z,27.39
2023-09-03T11:42:34.347Z,27.35
2023-09-03T11:45:36.926Z,27.35
2023-09-03T11:48:40.261Z,27.33
2023-09-03T11:51:42.613Z,27.23
2023-09-03T11:54:45.157Z,27.21
2023-09-03T11:57:47.624Z,27.21
2023-09-03T12:00:50.196Z,27.27
2023-09-03T12:03:52.772Z,27.11
2023-09-03T12:06:55.141Z,27.07
2023-09-03T12:09:57.476Z,27.10
2023-09-03T12:13:00.922Z,26.97
2023-09-03T12:16:07.821Z,26.93
2023-09-03T12:19:10.471Z,26.88
2023-09-03T12:22:15.011Z,26.69
2023-09-03T12:25:17.407Z,26.60
2023-09-03T12:28:19.849Z,26.55
2023-09-03T12:31:26.318Z,26.38
2023-09-03T12:34:35.661Z,26.26
2023-09-03T12:37:41.663Z,26.05
2023-09-03T12:40:44.159Z,25.91
2023-09-03T12:43:46.527Z,25.84
2023-09-03T12:46:49.433Z,25.71
2023-09-03T12:49:52.828Z,25.75
2023-09-03T12:52:57.373Z,25.66
2023-09-03T12:56:00.447Z,25.60
2023-09-03T12:59:08.958Z,25.56
2023-09-03T13:02:11.308Z,25.57
2023-09-03T13:05:13.711Z,25.66
2023-09-03T13:08:16.164Z,25.68
2023-09-03T13:11:20.011Z,25.75
2023-09-03T13:14:22.352Z,25.75
2023-09-03T13:17:25.910Z,25.80
2023-09-03T13:20:28.368Z,25.70
2023-09-03T13:23:30.710Z,25.76
2023-09-03T13:26:33.084Z,25.74
2023-09-03T13:29:35.457Z,25.80
2023-09-03T13:32:37.850Z,25.90
2023-09-03T13:35:42.255Z,25.85
2023-09-03T13:38:46.369Z,25.76
2023-09-03T13:41:49.703Z,25.75
2023-09-03T13:44:54.999Z,25.83
2023-09-03T13:47:57.412Z,25.94
2023-09-03T13:51:09.694Z,26.12
2023-09-03T13:54:12.022Z,26.24
2023-09-03T13:57:14.406Z,26.37
2023-09-03T14:00:16.989Z,26.26
2023-09-03T14:03:19.443Z,26.18
2023-09-03T14:06:21.887Z,26.09
2023-09-03T14:09:24.286Z,26.04
2023-09-03T14:12:26.731Z,26.09
2023-09-03T14:15:29.172Z,26.33
2023-09-03T14:18:31.511Z,26.63
2023-09-03T14:21:33.896Z,26.67
2023-09-03T14:24:37.096Z,26.62
2023-09-03T14:27:39.426Z,26.85
2023-09-03T14:30:42.458Z,27.07
2023-09-03T14:33:44.911Z,27.03
2023-09-03T14:36:47.269Z,26.66
2023-09-03T14:39:49.681Z,26.43
2023-09-03T14:42:52.013Z,26.21
2023-09-03T14:45:54.397Z,26.37
2023-09-03T14:48:56.807Z,26.31
2023-09-03T14:51:59.196Z,26.26
2023-09-03T14:55:01.536Z,26.12
2023-09-03T14:58:03.950Z,26.08
2023-09-03T15:01:19.732Z,26.11
2023-09-03T15:04:24.300Z,26.03
2023-09-03T15:07:26.677Z,26.02
2023-09-03T15:10:30.627Z,26.07
2023-09-03T15:13:32.956Z,26.26
2023-09-03T15:16:35.476Z,26.56
2023-09-03T15:19:37.865Z,26.53
2023-09-03T15:22:40.208Z,26.53
2023-09-03T15:25:42.624Z,26.61
2023-09-03T15:28:45.049Z,26.58
2023-09-03T15:31:47.772Z,26.50
2023-09-03T15:34:50.181Z,26.44
2023-09-03T15:37:52.594Z,26.44
2023-09-03T15:40:54.934Z,26.46
2023-09-03T15:44:03.294Z,26.57
2023-09-03T15:47:05.721Z,26.45
2023-09-03T15:50:08.387Z,26.36
2023-09-03T15:53:11.529Z,26.26
2023-09-03T15:56:14.105Z,26.07
2023-09-03T15:59:16.445Z,25.95
2023-09-03T16:02:18.904Z,25.95
2023-09-03T16:05:21.358Z,25.81
2023-09-03T16:08:24.230Z,25.69
2023-09-03T16:11:26.853Z,25.65
2023-09-03T16:14:29.552Z,25.55
2023-09-03T16:17:33.252Z,25.46
2023-09-03T16:20:38.901Z,25.41
2023-09-03T16:23:41.399Z,25.29
2023-09-03T16:26:43.800Z,25.19
2023-09-03T16:29:46.585Z,25.05
2023-09-03T16:32:49.017Z,25.01
2023-09-03T16:35:51.407Z,24.98
2023-09-03T16:38:53.793Z,24.87
2023-09-03T16:41:56.168Z,24.76
2023-09-03T16:44:59.540Z,24.69
2023-09-03T16:48:01.949Z,24.58
2023-09-03T16:51:04.395Z,24.55
2023-09-03T16:54:06.877Z,24.42
2023-09-03T16:57:09.250Z,24.40
2023-09-03T17:00:12.133Z,24.32
2023-09-03T17:03:15.578Z,24.33
2023-09-03T17:06:17.966Z,24.19
2023-09-03T17:09:20.338Z,24.14
2023-09-03T17:12:22.726Z,24.16
2023-09-03T17:15:25.118Z,24.02
2023-09-03T17:18:27.694Z,23.90
2023-09-03T17:21:30.204Z,23.89
2023-09-03T17:24:32.605Z,23.75
2023-09-03T17:27:34.997Z,23.71
2023-09-03T17:30:38.672Z,23.75
2023-09-03T17:33:41.116Z,23.71
2023-09-03T17:36:43.480Z,23.66
2023-09-03T17:39:45.876Z,23.53
2023-09-03T17:42:48.213Z,23.42
2023-09-03T17:45:50.621Z,23.35
2023-09-03T17:48:53.047Z,23.29
2023-09-03T17:51:55.474Z,23.23
2023-09-03T17:54:57.909Z,23.13
2023-09-03T17:58:00.264Z,23.05
2023-09-03T18:01:04.284Z,23.01
2023-09-03T18:04:06.743Z,22.96
2023-09-03T18:07:09.181Z,22.93
2023-09-03T18:10:11.925Z,22.87
2023-09-03T18:13:14.480Z,22.80
2023-09-03T18:16:17.188Z,22.76
2023-09-03T18:19:19.622Z,22.72
2023-09-03T18:22:22.018Z,22.65
2023-09-03T18:25:24.580Z,22.59
2023-09-03T18:28:27.041Z,22.58
2023-09-03T18:31:29.490Z,22.59
2023-09-03T18:34:31.873Z,22.50
2023-09-03T18:37:34.257Z,22.47
2023-09-03T18:40:38.382Z,22.58
2023-09-03T18:43:40.833Z,22.43
2023-09-03T18:46:44.563Z,22.34
2023-09-03T18:49:47.457Z,22.28
2023-09-03T18:52:50.779Z,22.22
2023-09-03T18:55:53.229Z,22.19
2023-09-03T18:58:55.556Z,22.12
2023-09-03T19:01:57.946Z,22.15
2023-09-03T19:05:00.443Z,22.11
2023-09-03T19:08:02.878Z,22.09
2023-09-03T19:11:05.498Z,22.04
2023-09-03T19:14:07.893Z,21.97
2023-09-03T19:17:10.592Z,21.94
2023-09-03T19:20:12.969Z,21.89
2023-09-03T19:23:15.370Z,21.89
2023-09-03T19:26:17.788Z,21.86
2023-09-03T19:29:20.865Z,21.90
2023-09-03T19:32:23.268Z,21.90
2023-09-03T19:35:25.656Z,21.82
2023-09-03T19:38:29.970Z,21.79
2023-09-03T19:41:34.419Z,21.81
2023-09-03T19:44:36.758Z,21.77
2023-09-03T19:47:39.201Z,21.74
2023-09-03T19:50:41.581Z,21.72
2023-09-03T19:53:43.963Z,21.71
2023-09-03T19:56:46.379Z,21.65
2023-09-03T19:59:48.842Z,21.68
2023-09-03T20:02:51.251Z,21.60
2023-09-03T20:05:58.106Z,21.53
2023-09-03T20:09:00.778Z,21.55
2023-09-03T20:12:03.920Z,21.58
2023-09-03T20:15:07.095Z,21.56
2023-09-03T20:18:09.496Z,21.50
2023-09-03T20:21:13.563Z,21.50
2023-09-03T20:24:16.606Z,21.41
2023-09-03T20:27:20.754Z,21.44
2023-09-03T20:30:23.249Z,21.43
2023-09-03T20:33:25.693Z,21.40
2023-09-03T20:36:28.165Z,21.36
2023-09-03T20:39:30.521Z,21.33
2023-09-03T20:42:32.978Z,21.35
2023-09-03T20:45:35.384Z,21.28
2023-09-03T20:48:37.773Z,21.29
2023-09-03T20:51:40.134Z,21.34
2023-09-03T20:54:42.528Z,21.35
2023-09-03T20:57:44.881Z,21.28
2023-09-03T21:00:47.303Z,21.37
2023-09-03T21:03:49.688Z,21.16
2023-09-03T21:06:52.260Z,21.15
2023-09-03T21:09:54.670Z,21.12
2023-09-03T21:12:57.152Z,21.10
2023-09-03T21:15:59.692Z,20.97
2023-09-03T21:19:02.031Z,20.93
2023-09-03T21:22:04.624Z,20.85
2023-09-03T21:25:07.367Z,20.83
2023-09-03T21:28:09.754Z,20.79
2023-09-03T21:31:19.174Z,20.75
2023-09-03T21:34:21.808Z,20.74
2023-09-03T21:37:25.226Z,20.72
2023-09-03T21:40:27.611Z,20.73
2023-09-03T21:43:29.997Z,20.74
2023-09-03T21:46:32.390Z,20.66
2023-09-03T21:49:34.921Z,20.75
2023-09-03T21:52:37.300Z,20.65
2023-09-03T21:55:39.668Z,20.55
2023-09-03T21:58:42.028Z,20.57
2023-09-03T22:01:44.435Z,20.55
2023-09-03T22:04:46.772Z,20.47
2023-09-03T22:07:49.218Z,20.45
2023-09-03T22:10:51.558Z,20.44
2023-09-03T22:13:53.890Z,20.35
2023-09-03T22:16:56.282Z,20.26
2023-09-03T22:19:58.659Z,20.18
2023-09-03T22:23:01.020Z,20.18
2023-09-03T22:26:03.469Z,20.19
2023-09-03T22:29:05.813Z,20.10
2023-09-03T22:32:08.219Z,20.04
2023-09-03T22:35:10.591Z,20.02
2023-09-03T22:38:12.951Z,19.99
2023-09-03T22:41:15.381Z,19.95
2023-09-03T22:44:17.733Z,20.04
2023-09-03T22:47:20.077Z,19.89
2023-09-03T22:50:22.426Z,19.84
2023-09-03T22:53:24.826Z,19.86
2023-09-03T22:56:27.187Z,19.87
2023-09-03T22:59:30.008Z,19.84
2023-09-03T23:02:32.457Z,19.74
2023-09-03T23:05:34.827Z,19.72
2023-09-03T23:08:37.568Z,19.68
2023-09-03T23:11:40.068Z,19.61
2023-09-03T23:14:42.433Z,19.58
2023-09-03T23:17:45.008Z,19.47
2023-09-03T23:20:47.419Z,19.48
2023-09-03T23:23:50.157Z,19.41
2023-09-03T23:26:52.575Z,19.38
2023-09-03T23:29:55.000Z,19.37
2023-09-03T23:32:57.448Z,19.35
2023-09-03T23:35:59.862Z,19.34
2023-09-03T23:39:02.249Z,19.36
2023-09-03T23:42:05.190Z,19.31
2023-09-03T23:45:07.947Z,19.28
2023-09-03T23:48:10.324Z,19.24
2023-09-03T23:51:12.744Z,19.17
2023-09-03T23:54:17.685Z,19.22
2023-09-03T23:57:20.097Z,19.17
